createdAt,value
2023-01-21T00:00:24.601Z,100.00
2023-01-21T00:02:51.077Z,100.00
2023-01-21T00:05:17.564Z,100.00
2023-01-21T00:07:43.938Z,100.00
2023-01-21T00:10:10.399Z,100.00
2023-01-21T00:12:37.524Z,100.00
2023-01-21T00:15:04.139Z,100.00
2023-01-21T00:17:35.274Z,100.00
2023-01-21T00:20:05.008Z,100.00
2023-01-21T00:22:31.712Z,100.00
2023-01-21T00:24:58.043Z,100.00
2023-01-21T00:27:24.600Z,100.00
2023-01-21T00:29:51.054Z,100.00
2023-01-21T00:32:17.880Z,100.00
2023-01-21T00:34:44.273Z,100.00
2023-01-21T00:37:10.588Z,100.00
2023-01-21T00:39:37.044Z,100.00
2023-01-21T00:42:04.493Z,100.00
2023-01-21T00:44:30.833Z,100.00
2023-01-21T00:46:57.219Z,100.00
2023-01-21T00:49:23.603Z,100.00
2023-01-21T00:51:52.146Z,100.00
2023-01-21T00:54:18.820Z,100.00
2023-01-21T00:56:45.141Z,100.00
2023-01-21T00:59:11.705Z,100.00
2023-01-21T01:01:38.612Z,100.00
2023-01-21T01:04:08.263Z,100.00
2023-01-21T01:06:34.664Z,100.00
2023-01-21T01:09:01.270Z,100.00
2023-01-21T01:11:28.178Z,100.00
2023-01-21T01:13:54.827Z,100.00
2023-01-21T01:16:21.590Z,100.00
2023-01-21T01:18:47.963Z,100.00
2023-01-21T01:21:15.786Z,100.00
2023-01-21T01:23:42.596Z,100.00
2023-01-21T01:26:10.842Z,100.00
2023-01-21T01:28:37.159Z,100.00
2023-01-21T01:31:04.604Z,100.00
2023-01-21T01:33:31.003Z,100.00
2023-01-21T01:36:00.852Z,100.00
2023-01-21T01:38:27.191Z,100.00
2023-01-21T01:40:53.701Z,100.00
2023-01-21T01:43:22.868Z,100.00
2023-01-21T01:45:49.551Z,100.00
2023-01-21T01:48:28.101Z,100.00
2023-01-21T01:50:56.600Z,100.00
2023-01-21T01:53:23.349Z,100.00
2023-01-21T01:55:49.900Z,100.00
2023-01-21T01:58:17.183Z,100.00
2023-01-21T02:00:44.704Z,100.00
2023-01-21T02:03:30.259Z,100.00
2023-01-21T02:05:56.784Z,100.00
2023-01-21T02:08:23.725Z,100.00
2023-01-21T02:10:50.129Z,100.00
2023-01-21T02:13:16.870Z,100.00
2023-01-21T02:15:45.198Z,100.00
2023-01-21T02:18:24.165Z,100.00
2023-01-21T02:20:53.485Z,100.00
2023-01-21T02:23:30.462Z,100.00
2023-01-21T02:26:14.911Z,100.00
2023-01-21T02:29:04.955Z,100.00
2023-01-21T02:31:46.539Z,100.00
2023-01-21T02:34:12.862Z,100.00
2023-01-21T02:37:02.611Z,100.00
2023-01-21T02:39:29.021Z,100.00
2023-01-21T02:42:12.478Z,100.00
2023-01-21T02:45:05.700Z,100.00
2023-01-21T02:47:45.380Z,100.00
2023-01-21T02:50:18.329Z,100.00
2023-01-21T02:52:44.781Z,100.00
2023-01-21T02:55:15.891Z,100.00
2023-01-21T02:57:45.103Z,100.00
2023-01-21T03:00:18.391Z,100.00
2023-01-21T03:02:50.692Z,100.00
2023-01-21T03:05:25.226Z,100.00
2023-01-21T03:07:59.295Z,100.00
2023-01-21T03:10:34.618Z,100.00
2023-01-21T03:13:02.642Z,100.00
2023-01-21T03:15:50.539Z,100.00
2023-01-21T03:18:25.095Z,100.00
2023-01-21T03:21:06.131Z,100.00
2023-01-21T03:23:36.516Z,100.00
2023-01-21T03:26:04.555Z,100.00
2023-01-21T03:28:33.091Z,100.00
2023-01-21T03:31:10.807Z,100.00
2023-01-21T03:33:39.463Z,100.00
2023-01-21T03:36:10.492Z,100.00
2023-01-21T03:38:39.896Z,100.00
2023-01-21T03:41:11.407Z,100.00
2023-01-21T03:43:38.532Z,100.00
2023-01-21T03:46:40.327Z,100.00
2023-01-21T03:49:19.165Z,100.00
2023-01-21T03:51:52.403Z,100.00
2023-01-21T03:54:19.054Z,100.00
2023-01-21T03:56:45.464Z,100.00
2023-01-21T03:59:11.923Z,100.00
2023-01-21T04:01:39.604Z,100.00
2023-01-21T04:04:06.211Z,100.00
2023-01-21T04:06:33.245Z,100.00
2023-01-21T04:08:59.646Z,100.00
2023-01-21T04:11:26.014Z,100.00
2023-01-21T04:13:52.399Z,100.00
2023-01-21T04:16:18.779Z,100.00
2023-01-21T04:18:47.595Z,100.00
2023-01-21T04:21:14.121Z,100.00
2023-01-21T04:23:40.498Z,100.00
2023-01-21T04:26:07.950Z,100.00
2023-01-21T04:28:44.199Z,100.00
2023-01-21T04:31:10.547Z,100.00
2023-01-21T04:33:38.249Z,100.00
2023-01-21T04:36:04.762Z,100.00
2023-01-21T04:38:31.137Z,100.00
2023-01-21T04:41:06.774Z,100.00
2023-01-21T04:43:33.096Z,100.00
2023-01-21T04:45:59.514Z,100.00
2023-01-21T04:48:25.914Z,100.00
2023-01-21T04:50:52.282Z,100.00
2023-01-21T04:53:18.682Z,100.00
2023-01-21T04:55:45.034Z,100.00
2023-01-21T04:58:13.435Z,100.00
2023-01-21T05:00:39.773Z,100.00
2023-01-21T05:03:06.091Z,100.00
2023-01-21T05:05:32.415Z,100.00
2023-01-21T05:07:59.822Z,100.00
2023-01-21T05:10:26.206Z,100.00
2023-01-21T05:12:52.555Z,100.00
2023-01-21T05:15:19.341Z,100.00
2023-01-21T05:17:45.750Z,100.00
2023-01-21T05:20:12.400Z,100.00
2023-01-21T05:22:39.223Z,100.00
2023-01-21T05:25:05.816Z,100.00
2023-01-21T05:27:32.393Z,100.00
2023-01-21T05:29:58.799Z,100.00
2023-01-21T05:32:25.162Z,100.00
2023-01-21T05:34:51.506Z,100.00
2023-01-21T05:37:17.927Z,100.00
2023-01-21T05:39:44.688Z,100.00
2023-01-21T05:42:11.052Z,100.00
2023-01-21T05:44:37.433Z,100.00
2023-01-21T05:47:03.821Z,100.00
2023-01-21T05:49:30.146Z,100.00
2023-01-21T05:51:56.896Z,100.00
2023-01-21T05:54:30.104Z,100.00
2023-01-21T05:56:56.947Z,100.00
2023-01-21T05:59:23.278Z,100.00
2023-01-21T06:01:49.630Z,100.00
2023-01-21T06:04:15.959Z,100.00
2023-01-21T06:06:42.281Z,100.00
2023-01-21T06:09:08.796Z,100.00
2023-01-21T06:11:36.147Z,100.00
2023-01-21T06:14:02.490Z,100.00
2023-01-21T06:16:28.823Z,100.00
2023-01-21T06:18:55.199Z,100.00
2023-01-21T06:21:21.525Z,100.00
2023-01-21T06:23:47.849Z,100.00
2023-01-21T06:26:14.202Z,100.00
2023-01-21T06:28:43.623Z,100.00
2023-01-21T06:31:10.010Z,100.00
2023-01-21T06:33:36.399Z,100.00
2023-01-21T06:36:02.719Z,100.00
2023-01-21T06:38:29.119Z,100.00
2023-01-21T06:41:03.109Z,100.00
2023-01-21T06:43:29.446Z,100.00
2023-01-21T06:45:55.944Z,100.00
2023-01-21T06:48:22.317Z,100.00
2023-01-21T06:50:48.692Z,100.00
2023-01-21T06:53:15.057Z,100.00
2023-01-21T06:55:41.445Z,100.00
2023-01-21T06:58:07.956Z,100.00
2023-01-21T07:00:34.295Z,100.00
2023-01-21T07:03:00.857Z,100.00
2023-01-21T07:05:27.879Z,100.00
2023-01-21T07:07:55.720Z,100.00
2023-01-21T07:10:22.347Z,100.00
2023-01-21T07:12:51.010Z,100.00
2023-01-21T07:15:17.691Z,100.00
2023-01-21T07:17:44.341Z,100.00
2023-01-21T07:20:12.523Z,100.00
2023-01-21T07:22:38.982Z,99.46
2023-01-21T07:25:05.672Z,100.00
2023-01-21T07:27:32.019Z,99.01
2023-01-21T07:29:58.355Z,100.00
2023-01-21T07:32:24.775Z,100.00
2023-01-21T07:34:51.086Z,99.34
2023-01-21T07:37:17.402Z,100.00
2023-01-21T07:39:43.733Z,99.99
2023-01-21T07:42:10.403Z,98.08
2023-01-21T07:44:36.829Z,99.93
2023-01-21T07:47:03.262Z,99.50
2023-01-21T07:49:29.591Z,99.82
2023-01-21T07:51:56.630Z,97.50
2023-01-21T07:54:23.007Z,98.07
2023-01-21T07:56:49.396Z,99.89
2023-01-21T07:59:15.755Z,98.91
2023-01-21T08:01:42.219Z,97.64
2023-01-21T08:04:09.767Z,98.93
2023-01-21T08:06:37.897Z,97.93
2023-01-21T08:09:06.247Z,98.19
2023-01-21T08:11:32.918Z,97.14
2023-01-21T08:13:59.260Z,96.87
2023-01-21T08:16:25.746Z,99.17
2023-01-21T08:18:52.112Z,96.62
2023-01-21T08:21:19.946Z,96.57
2023-01-21T08:23:47.312Z,98.50
2023-01-21T08:26:13.722Z,98.33
2023-01-21T08:28:40.101Z,99.46
2023-01-21T08:31:13.263Z,100.00
2023-01-21T08:33:39.720Z,100.00
2023-01-21T08:36:08.026Z,100.00
2023-01-21T08:38:34.694Z,100.00
2023-01-21T08:41:01.049Z,100.00
2023-01-21T08:43:27.455Z,100.00
2023-01-21T08:45:58.723Z,100.00
2023-01-21T08:48:25.160Z,100.00
2023-01-21T08:50:57.825Z,100.00
2023-01-21T08:53:24.180Z,100.00
2023-01-21T08:55:50.505Z,100.00
2023-01-21T08:58:16.951Z,100.00
2023-01-21T09:00:44.866Z,100.00
2023-01-21T09:03:11.356Z,100.00
2023-01-21T09:05:37.687Z,100.00
2023-01-21T09:08:04.028Z,100.00
2023-01-21T09:10:49.070Z,100.00
2023-01-21T09:13:16.439Z,100.00
2023-01-21T09:15:43.354Z,100.00
2023-01-21T09:18:09.835Z,98.82
2023-01-21T09:20:36.328Z,100.00
2023-01-21T09:23:02.673Z,99.63
2023-01-21T09:25:29.004Z,99.88
2023-01-21T09:27:55.355Z,99.34
2023-01-21T09:30:27.675Z,100.00
2023-01-21T09:32:54.023Z,96.68
2023-01-21T09:35:22.385Z,98.09
2023-01-21T09:37:48.701Z,99.79
2023-01-21T09:40:16.233Z,96.74
2023-01-21T09:42:46.499Z,94.90
2023-01-21T09:45:15.205Z,91.70
2023-01-21T09:47:44.781Z,93.10
2023-01-21T09:50:16.755Z,94.56
2023-01-21T09:52:44.964Z,93.07
2023-01-21T09:55:17.781Z,92.59
2023-01-21T09:58:01.904Z,94.02
2023-01-21T10:00:33.608Z,91.42
2023-01-21T10:03:06.006Z,92.55
2023-01-21T10:05:38.240Z,93.05
2023-01-21T10:08:07.690Z,92.43
2023-01-21T10:10:40.224Z,92.20
2023-01-21T10:13:15.479Z,90.06
2023-01-21T10:15:53.825Z,90.95
2023-01-21T10:18:24.875Z,85.02
2023-01-21T10:20:54.228Z,86.51
2023-01-21T10:23:24.888Z,88.40
2023-01-21T10:25:51.363Z,85.32
2023-01-21T10:28:25.552Z,87.02
2023-01-21T10:30:55.564Z,83.58
2023-01-21T10:33:24.125Z,82.50
2023-01-21T10:35:59.849Z,81.94
2023-01-21T10:38:41.207Z,84.80
2023-01-21T10:41:27.106Z,83.34
2023-01-21T10:43:56.496Z,83.12
2023-01-21T10:46:26.505Z,82.21
2023-01-21T10:49:06.928Z,83.68
2023-01-21T10:51:38.219Z,81.59
2023-01-21T10:54:27.324Z,81.09
2023-01-21T10:57:20.151Z,78.95
2023-01-21T10:59:47.786Z,79.64
2023-01-21T11:02:19.125Z,78.29
2023-01-21T11:04:45.498Z,79.86
2023-01-21T11:07:13.618Z,79.39
2023-01-21T11:09:45.109Z,78.50
2023-01-21T11:12:18.770Z,75.94
2023-01-21T11:14:47.914Z,76.18
2023-01-21T11:17:28.186Z,73.54
2023-01-21T11:19:58.562Z,73.20
2023-01-21T11:22:26.044Z,74.68
2023-01-21T11:24:52.795Z,76.03
2023-01-21T11:27:31.053Z,76.57
2023-01-21T11:29:57.371Z,74.93
2023-01-21T11:32:27.183Z,75.32
2023-01-21T11:35:16.349Z,72.90
2023-01-21T11:37:44.835Z,72.94
2023-01-21T11:40:11.429Z,72.79
2023-01-21T11:42:48.212Z,73.85
2023-01-21T11:45:26.650Z,72.74
2023-01-21T11:47:53.823Z,73.21
2023-01-21T11:50:34.803Z,74.45
2023-01-21T11:53:07.948Z,72.14
2023-01-21T11:55:54.698Z,74.09
2023-01-21T11:58:32.026Z,74.40
2023-01-21T12:01:03.326Z,73.80
2023-01-21T12:03:29.639Z,74.97
2023-01-21T12:05:56.051Z,72.57
2023-01-21T12:08:40.586Z,76.20
2023-01-21T12:11:07.785Z,75.15
2023-01-21T12:13:43.045Z,75.38
2023-01-21T12:16:20.867Z,76.30
2023-01-21T12:19:06.948Z,73.70
2023-01-21T12:21:34.303Z,77.00
2023-01-21T12:24:08.843Z,76.79
2023-01-21T12:26:45.651Z,76.64
2023-01-21T12:29:33.771Z,78.17
2023-01-21T12:32:03.389Z,77.73
2023-01-21T12:34:35.993Z,77.61
2023-01-21T12:37:05.415Z,76.25
2023-01-21T12:39:34.150Z,77.78
2023-01-21T12:42:06.607Z,77.93
2023-01-21T12:44:44.952Z,77.53
2023-01-21T12:47:34.422Z,75.78
2023-01-21T12:50:20.730Z,76.91
2023-01-21T12:52:55.009Z,78.02
2023-01-21T12:55:21.372Z,76.79
2023-01-21T12:57:50.722Z,79.64
2023-01-21T13:00:34.076Z,78.27
2023-01-21T13:03:12.877Z,79.18
2023-01-21T13:06:05.757Z,78.07
2023-01-21T13:08:35.205Z,77.30
2023-01-21T13:11:13.063Z,76.49
2023-01-21T13:13:41.824Z,77.75
2023-01-21T13:16:09.220Z,77.02
2023-01-21T13:18:39.702Z,75.99
2023-01-21T13:21:28.324Z,76.01
2023-01-21T13:24:00.154Z,76.06
2023-01-21T13:26:44.627Z,75.56
2023-01-21T13:29:20.046Z,76.50
2023-01-21T13:31:48.847Z,75.68
2023-01-21T13:34:22.779Z,75.31
2023-01-21T13:37:11.566Z,77.31
2023-01-21T13:39:37.904Z,74.62
2023-01-21T13:42:24.088Z,74.28
2023-01-21T13:44:54.685Z,74.62
2023-01-21T13:47:29.812Z,75.53
2023-01-21T13:50:02.056Z,77.30
2023-01-21T13:52:50.066Z,75.55
2023-01-21T13:55:37.825Z,75.85
2023-01-21T13:58:27.144Z,78.32
2023-01-21T14:00:57.163Z,79.89
2023-01-21T14:03:38.719Z,80.47
2023-01-21T14:06:09.762Z,78.02
2023-01-21T14:08:43.017Z,79.07
2023-01-21T14:11:09.335Z,80.44
2023-01-21T14:14:04.689Z,80.21
2023-01-21T14:16:37.356Z,81.05
2023-01-21T14:19:22.480Z,81.05
2023-01-21T14:22:05.356Z,79.93
2023-01-21T14:24:55.326Z,80.82
2023-01-21T14:27:31.014Z,80.04
2023-01-21T14:30:23.127Z,79.72
2023-01-21T14:32:54.247Z,80.66
2023-01-21T14:35:35.971Z,81.53
2023-01-21T14:38:05.113Z,80.96
2023-01-21T14:40:33.031Z,82.29
2023-01-21T14:42:59.757Z,84.26
2023-01-21T14:45:49.536Z,79.41
2023-01-21T14:48:34.733Z,81.63
2023-01-21T14:51:20.615Z,81.04
2023-01-21T14:53:48.409Z,82.35
2023-01-21T14:56:16.084Z,79.50
2023-01-21T14:58:53.583Z,80.69
2023-01-21T15:01:29.009Z,80.02
2023-01-21T15:03:57.359Z,79.67
2023-01-21T15:06:25.133Z,79.23
2023-01-21T15:08:53.420Z,81.89
2023-01-21T15:11:21.677Z,80.52
2023-01-21T15:14:12.291Z,80.85
2023-01-21T15:16:40.115Z,79.83
2023-01-21T15:19:09.812Z,81.97
2023-01-21T15:21:36.220Z,81.77
2023-01-21T15:24:21.880Z,80.19
2023-01-21T15:27:04.060Z,80.89
2023-01-21T15:29:37.170Z,84.26
2023-01-21T15:32:14.000Z,82.64
2023-01-21T15:34:42.268Z,83.43
2023-01-21T15:37:26.853Z,83.40
2023-01-21T15:39:56.996Z,84.74
2023-01-21T15:42:43.869Z,85.07
2023-01-21T15:45:16.221Z,84.36
2023-01-21T15:47:51.827Z,84.17
2023-01-21T15:50:27.746Z,82.71
2023-01-21T15:52:56.935Z,83.14
2023-01-21T15:55:32.367Z,83.50
2023-01-21T15:58:17.227Z,84.80
2023-01-21T16:00:55.859Z,84.01
2023-01-21T16:03:30.183Z,83.72
2023-01-21T16:06:10.486Z,84.09
2023-01-21T16:08:42.573Z,83.68
2023-01-21T16:11:14.859Z,84.66
2023-01-21T16:13:55.705Z,86.25
2023-01-21T16:16:36.981Z,86.38
2023-01-21T16:19:08.589Z,87.89
2023-01-21T16:21:36.483Z,90.37
2023-01-21T16:24:08.459Z,89.59
2023-01-21T16:26:34.822Z,90.10
2023-01-21T16:29:01.339Z,92.42
2023-01-21T16:31:27.836Z,92.91
2023-01-21T16:33:54.494Z,93.18
2023-01-21T16:36:20.845Z,92.49
2023-01-21T16:38:47.510Z,93.67
2023-01-21T16:41:24.002Z,94.48
2023-01-21T16:43:54.381Z,94.11
2023-01-21T16:46:23.720Z,93.15
2023-01-21T16:48:51.507Z,91.64
2023-01-21T16:51:23.737Z,92.70
2023-01-21T16:53:53.736Z,92.74
2023-01-21T16:56:28.300Z,92.91
2023-01-21T16:58:56.435Z,93.36
2023-01-21T17:01:24.942Z,93.25
2023-01-21T17:03:51.488Z,94.40
2023-01-21T17:06:30.099Z,96.99
2023-01-21T17:08:58.702Z,97.99
2023-01-21T17:11:25.267Z,99.25
2023-01-21T17:13:52.098Z,98.86
2023-01-21T17:16:22.716Z,99.62
2023-01-21T17:19:02.014Z,100.00
2023-01-21T17:21:28.356Z,100.00
2023-01-21T17:23:56.299Z,100.00
2023-01-21T17:26:30.612Z,100.00
2023-01-21T17:28:58.102Z,100.00
2023-01-21T17:31:31.480Z,100.00
2023-01-21T17:34:21.658Z,100.00
2023-01-21T17:36:49.299Z,100.00
2023-01-21T17:39:35.697Z,100.00
2023-01-21T17:42:05.237Z,99.49
2023-01-21T17:44:31.687Z,98.59
2023-01-21T17:46:58.033Z,100.00
2023-01-21T17:49:26.283Z,99.36
2023-01-21T17:51:54.197Z,100.00
2023-01-21T17:54:21.935Z,100.00
2023-01-21T17:56:52.814Z,100.00
2023-01-21T17:59:34.185Z,99.43
2023-01-21T18:02:01.162Z,100.00
2023-01-21T18:04:29.692Z,100.00
2023-01-21T18:06:56.562Z,100.00
2023-01-21T18:09:23.909Z,100.00
2023-01-21T18:11:53.491Z,100.00
2023-01-21T18:14:33.033Z,100.00
2023-01-21T18:16:59.441Z,100.00
2023-01-21T18:19:36.509Z,100.00
2023-01-21T18:22:04.030Z,100.00
2023-01-21T18:24:30.406Z,100.00
2023-01-21T18:26:57.665Z,100.00
2023-01-21T18:29:28.005Z,100.00
2023-01-21T18:31:54.363Z,100.00
2023-01-21T18:34:21.025Z,100.00
2023-01-21T18:36:47.365Z,100.00
2023-01-21T18:39:17.600Z,100.00
2023-01-21T18:41:44.270Z,100.00
2023-01-21T18:44:10.636Z,100.00
2023-01-21T18:46:43.872Z,100.00
2023-01-21T18:49:20.130Z,100.00
2023-01-21T18:51:48.308Z,100.00
2023-01-21T18:54:23.947Z,100.00
2023-01-21T18:56:50.295Z,100.00
2023-01-21T18:59:18.014Z,100.00
2023-01-21T19:01:45.940Z,100.00
2023-01-21T19:04:14.205Z,100.00
2023-01-21T19:06:40.673Z,100.00
2023-01-21T19:09:19.264Z,100.00
2023-01-21T19:11:45.629Z,100.00
2023-01-21T19:14:11.980Z,100.00
2023-01-21T19:16:39.577Z,100.00
2023-01-21T19:19:16.924Z,100.00
2023-01-21T19:21:44.366Z,100.00
2023-01-21T19:24:12.288Z,100.00
2023-01-21T19:26:39.903Z,100.00
2023-01-21T19:29:10.983Z,100.00
2023-01-21T19:31:37.519Z,100.00
2023-01-21T19:34:03.945Z,100.00
2023-01-21T19:36:30.359Z,100.00
2023-01-21T19:39:01.410Z,100.00
2023-01-21T19:41:27.795Z,100.00
2023-01-21T19:43:56.191Z,100.00
2023-01-21T19:46:23.851Z,100.00
2023-01-21T19:48:53.641Z,100.00
2023-01-21T19:51:20.181Z,100.00
2023-01-21T19:53:46.620Z,100.00
2023-01-21T19:56:15.951Z,100.00
2023-01-21T19:58:42.430Z,100.00
2023-01-21T20:01:13.009Z,100.00
2023-01-21T20:03:48.148Z,100.00
2023-01-21T20:06:22.429Z,100.00
2023-01-21T20:08:50.902Z,100.00
2023-01-21T20:11:18.411Z,100.00
2023-01-21T20:13:44.852Z,100.00
2023-01-21T20:16:16.200Z,100.00
2023-01-21T20:18:42.715Z,100.00
2023-01-21T20:21:09.280Z,100.00
2023-01-21T20:23:39.158Z,100.00
2023-01-21T20:26:07.175Z,100.00
2023-01-21T20:28:37.197Z,100.00
2023-01-21T20:31:06.559Z,100.00
2023-01-21T20:33:33.668Z,100.00
2023-01-21T20:36:00.306Z,100.00
2023-01-21T20:38:28.314Z,100.00
2023-01-21T20:40:54.708Z,100.00
2023-01-21T20:43:21.070Z,100.00
2023-01-21T20:45:47.953Z,100.00
2023-01-21T20:48:35.763Z,100.00
2023-01-21T20:51:02.891Z,100.00
2023-01-21T20:53:30.750Z,100.00
2023-01-21T20:55:58.733Z,100.00
2023-01-21T20:58:26.293Z,100.00
2023-01-21T21:00:53.769Z,100.00
2023-01-21T21:03:20.381Z,100.00
2023-01-21T21:05:49.862Z,100.00
2023-01-21T21:08:20.333Z,100.00
2023-01-21T21:10:48.101Z,100.00
2023-01-21T21:13:14.580Z,100.00
2023-01-21T21:15:45.659Z,100.00
2023-01-21T21:18:13.733Z,100.00
2023-01-21T21:20:40.574Z,100.00
2023-01-21T21:23:07.603Z,100.00
2023-01-21T21:25:39.665Z,100.00
2023-01-21T21:28:06.025Z,100.00
2023-01-21T21:30:33.717Z,100.00
2023-01-21T21:33:01.655Z,100.00
2023-01-21T21:35:31.610Z,100.00
2023-01-21T21:37:59.040Z,100.00
2023-01-21T21:40:26.485Z,100.00
2023-01-21T21:43:13.572Z,100.00
2023-01-21T21:46:00.243Z,100.00
2023-01-21T21:48:40.987Z,100.00
2023-01-21T21:51:09.125Z,100.00
2023-01-21T21:53:36.109Z,100.00
2023-01-21T21:56:03.588Z,100.00
2023-01-21T21:58:30.304Z,100.00
2023-01-21T22:00:56.676Z,100.00
2023-01-21T22:03:23.274Z,100.00
2023-01-21T22:05:51.343Z,100.00
2023-01-21T22:08:17.872Z,100.00
2023-01-21T22:10:44.196Z,100.00
2023-01-21T22:13:11.593Z,100.00
2023-01-21T22:15:38.065Z,100.00
2023-01-21T22:18:06.527Z,100.00
2023-01-21T22:20:32.937Z,100.00
2023-01-21T22:22:59.290Z,100.00
2023-01-21T22:25:26.713Z,100.00
2023-01-21T22:27:53.108Z,100.00
2023-01-21T22:30:19.507Z,100.00
2023-01-21T22:32:53.629Z,100.00
2023-01-21T22:35:20.092Z,100.00
2023-01-21T22:37:46.644Z,100.00
2023-01-21T22:40:13.473Z,100.00
2023-01-21T22:42:39.793Z,100.00
2023-01-21T22:45:06.406Z,100.00
2023-01-21T22:47:34.765Z,100.00
2023-01-21T22:50:07.408Z,100.00
2023-01-21T22:52:33.734Z,100.00
2023-01-21T22:55:00.061Z,100.00
2023-01-21T22:57:26.388Z,100.00
2023-01-21T23:00:00.515Z,100.00
2023-01-21T23:02:27.881Z,100.00
2023-01-21T23:04:55.408Z,100.00
2023-01-21T23:07:21.757Z,100.00
2023-01-21T23:09:48.102Z,100.00
2023-01-21T23:12:20.515Z,100.00
2023-01-21T23:14:47.469Z,100.00
2023-01-21T23:17:14.373Z,100.00
2023-01-21T23:19:42.829Z,100.00
2023-01-21T23:22:09.146Z,100.00
2023-01-21T23:24:35.458Z,100.00
2023-01-21T23:27:01.859Z,100.00
2023-01-21T23:29:28.189Z,100.00
2023-01-21T23:31:54.776Z,100.00
2023-01-21T23:34:22.745Z,100.00
2023-01-21T23:36:49.664Z,100.00
2023-01-21T23:39:16.059Z,100.00
2023-01-21T23:41:42.413Z,100.00
2023-01-21T23:44:10.697Z,100.00
2023-01-21T23:46:37.186Z,100.00
2023-01-21T23:49:03.505Z,100.00
2023-01-21T23:51:39.929Z,100.00
2023-01-21T23:54:06.391Z,100.00
2023-01-21T23:56:32.726Z,100.00
2023-01-21T23:58:59.035Z,100.00
